To NAV CANADA Home Page Login to a new session Search on AWWS site Feedback and Comments Disclaimer Vers la page française équivalente Tips FAQ What's new on the site To the Forecasts and Observations / NOTAM section To "File a Flight Plan" website Publications and other links Update of the User's profile FIC Telephone Numbers My Weather Data Folder Route Weather Data Regional Weather Data Local Weather Data To the Forecasts and Observations / NOTAM section
Request Generated 05/23/2015 at 14:49:34 UTC . Weather information available at that time is displayed.

METAR/TAF

TORONTO/BUTTONVILLE MUNICIPAL/ON    

METAR CYKZ 231400Z 22006KT 170V280 15SM SKC 12/M03 A3041 RMK SLP302=
METAR CYKZ 231300Z 22006KT 15SM SKC 09/M03 A3041 RMK SLP301=
METAR CYKZ 231200Z 26005KT 210V280 15SM SKC 07/M03 A3039 RMK SLP295=

TAF CYKZ 231138Z 2312/2324 25005KT P6SM SKC
BECMG 2312/2314 24012KT
BECMG 2316/2318 26012G22KT
RMK NXT FCST BY 231800Z=
Your time UTC time
Weather data provided by Environment Canada and NAV CANADA